sensor_id;sensor_type;location;lat;lon;timestamp;P1;durP1;ratioP1;P2;durP2;ratioP2
22995;SDS011;11664;49.774;8.650;2024-02-28T00:02:23;15.15;;;8.23;;
22995;SDS011;11664;49.774;8.650;2024-02-28T00:04:49;13.63;;;8.63;;
22995;SDS011;11664;49.774;8.650;2024-02-28T00:07:14;20.73;;;10.65;;
22995;SDS011;11664;49.774;8.650;2024-02-28T00:09:40;12.88;;;8.27;;
22995;SDS011;11664;49.774;8.650;2024-02-28T00:12:05;13.55;;;8.77;;
22995;SDS011;11664;49.774;8.650;2024-02-28T00:14:31;15.18;;;10.13;;
22995;SDS011;11664;49.774;8.650;2024-02-28T00:16:56;15.07;;;9.07;;
22995;SDS011;11664;49.774;8.650;2024-02-28T00:19:22;17.75;;;11.10;;
22995;SDS011;11664;49.774;8.650;2024-02-28T00:21:49;18.02;;;10.35;;
22995;SDS011;11664;49.774;8.650;2024-02-28T00:24:15;20.65;;;10.05;;
22995;SDS011;11664;49.774;8.650;2024-02-28T00:26:41;18.70;;;9.48;;
22995;SDS011;11664;49.774;8.650;2024-02-28T00:29:08;13.80;;;8.02;;
22995;SDS011;11664;49.774;8.650;2024-02-28T00:31:35;10.65;;;7.32;;
22995;SDS011;11664;49.774;8.650;2024-02-28T00:34:01;9.88;;;7.05;;
22995;SDS011;11664;49.774;8.650;2024-02-28T00:36:27;11.82;;;7.32;;
22995;SDS011;11664;49.774;8.650;2024-02-28T00:38:52;13.27;;;9.38;;
22995;SDS011;11664;49.774;8.650;2024-02-28T00:41:18;14.82;;;10.10;;
22995;SDS011;11664;49.774;8.650;2024-02-28T00:43:43;14.27;;;8.27;;
22995;SDS011;11664;49.774;8.650;2024-02-28T00:46:09;13.88;;;9.60;;
22995;SDS011;11664;49.774;8.650;2024-02-28T00:48:37;12.05;;;7.40;;
22995;SDS011;11664;49.774;8.650;2024-02-28T00:51:03;9.38;;;6.45;;
22995;SDS011;11664;49.774;8.650;2024-02-28T00:53:29;12.05;;;7.22;;
22995;SDS011;11664;49.774;8.650;2024-02-28T00:55:54;13.25;;;9.00;;
22995;SDS011;11664;49.774;8.650;2024-02-28T00:58:20;12.40;;;7.43;;
22995;SDS011;11664;49.774;8.650;2024-02-28T01:00:47;10.27;;;7.72;;
22995;SDS011;11664;49.774;8.650;2024-02-28T01:03:13;15.07;;;9.88;;
22995;SDS011;11664;49.774;8.650;2024-02-28T01:05:40;12.88;;;10.10;;
22995;SDS011;11664;49.774;8.650;2024-02-28T01:08:06;15.05;;;8.30;;
22995;SDS011;11664;49.774;8.650;2024-02-28T01:10:32;16.15;;;7.80;;
22995;SDS011;11664;49.774;8.650;2024-02-28T01:12:58;15.50;;;7.97;;
22995;SDS011;11664;49.774;8.650;2024-02-28T01:15:24;11.57;;;8.23;;
22995;SDS011;11664;49.774;8.650;2024-02-28T01:17:49;11.45;;;7.35;;
22995;SDS011;11664;49.774;8.650;2024-02-28T01:20:15;12.95;;;8.07;;
22995;SDS011;11664;49.774;8.650;2024-02-28T01:22:40;15.77;;;8.52;;
22995;SDS011;11664;49.774;8.650;2024-02-28T01:25:06;10.32;;;8.50;;
22995;SDS011;11664;49.774;8.650;2024-02-28T01:27:32;12.40;;;11.02;;
22995;SDS011;11664;49.774;8.650;2024-02-28T01:29:57;13.50;;;8.90;;
22995;SDS011;11664;49.774;8.650;2024-02-28T01:32:23;16.15;;;7.68;;
22995;SDS011;11664;49.774;8.650;2024-02-28T01:34:49;14.45;;;12.18;;
22995;SDS011;11664;49.774;8.650;2024-02-28T01:37:15;14.18;;;9.25;;
22995;SDS011;11664;49.774;8.650;2024-02-28T01:39:40;10.77;;;8.35;;
22995;SDS011;11664;49.774;8.650;2024-02-28T01:42:06;12.68;;;7.78;;
22995;SDS011;11664;49.774;8.650;2024-02-28T01:44:33;15.88;;;8.43;;
22995;SDS011;11664;49.774;8.650;2024-02-28T01:47:06;16.25;;;9.32;;
22995;SDS011;11664;49.774;8.650;2024-02-28T01:49:31;16.60;;;9.13;;
22995;SDS011;11664;49.774;8.650;2024-02-28T01:51:57;14.93;;;8.10;;
22995;SDS011;11664;49.774;8.650;2024-02-28T01:54:23;14.25;;;7.53;;
22995;SDS011;11664;49.774;8.650;2024-02-28T01:56:49;13.70;;;7.95;;
22995;SDS011;11664;49.774;8.650;2024-02-28T01:59:14;14.52;;;7.72;;
22995;SDS011;11664;49.774;8.650;2024-02-28T02:01:42;15.52;;;8.10;;
22995;SDS011;11664;49.774;8.650;2024-02-28T02:04:08;19.85;;;8.95;;
22995;SDS011;11664;49.774;8.650;2024-02-28T02:06:33;28.77;;;10.73;;
22995;SDS011;11664;49.774;8.650;2024-02-28T02:09:03;31.88;;;10.15;;
22995;SDS011;11664;49.774;8.650;2024-02-28T02:11:29;42.75;;;14.45;;
22995;SDS011;11664;49.774;8.650;2024-02-28T02:13:54;32.65;;;13.10;;
22995;SDS011;11664;49.774;8.650;2024-02-28T02:16:20;34.42;;;13.27;;
22995;SDS011;11664;49.774;8.650;2024-02-28T02:18:52;29.48;;;11.25;;
22995;SDS011;11664;49.774;8.650;2024-02-28T02:21:18;15.57;;;7.97;;
22995;SDS011;11664;49.774;8.650;2024-02-28T02:23:47;16.02;;;8.93;;
22995;SDS011;11664;49.774;8.650;2024-02-28T02:26:13;14.75;;;7.68;;
22995;SDS011;11664;49.774;8.650;2024-02-28T02:28:38;10.25;;;7.22;;
22995;SDS011;11664;49.774;8.650;2024-02-28T02:31:04;17.80;;;8.35;;
22995;SDS011;11664;49.774;8.650;2024-02-28T02:33:30;16.77;;;7.97;;
22995;SDS011;11664;49.774;8.650;2024-02-28T02:35:55;14.77;;;7.63;;
22995;SDS011;11664;49.774;8.650;2024-02-28T02:38:21;12.18;;;7.20;;
22995;SDS011;11664;49.774;8.650;2024-02-28T02:40:50;11.30;;;6.68;;
22995;SDS011;11664;49.774;8.650;2024-02-28T02:43:16;16.10;;;8.77;;
22995;SDS011;11664;49.774;8.650;2024-02-28T02:45:42;13.13;;;7.07;;
22995;SDS011;11664;49.774;8.650;2024-02-28T02:48:08;13.07;;;7.20;;
22995;SDS011;11664;49.774;8.650;2024-02-28T02:50:34;11.00;;;7.55;;
22995;SDS011;11664;49.774;8.650;2024-02-28T02:52:59;12.60;;;7.35;;
22995;SDS011;11664;49.774;8.650;2024-02-28T02:55:25;10.60;;;7.50;;
22995;SDS011;11664;49.774;8.650;2024-02-28T02:57:50;16.77;;;8.18;;
22995;SDS011;11664;49.774;8.650;2024-02-28T03:00:16;14.07;;;7.63;;
22995;SDS011;11664;49.774;8.650;2024-02-28T03:02:42;13.75;;;7.60;;
22995;SDS011;11664;49.774;8.650;2024-02-28T03:05:07;15.13;;;7.53;;
22995;SDS011;11664;49.774;8.650;2024-02-28T03:07:33;12.38;;;7.35;;
22995;SDS011;11664;49.774;8.650;2024-02-28T03:09:59;18.13;;;9.15;;
22995;SDS011;11664;49.774;8.650;2024-02-28T03:12:25;13.77;;;7.90;;
22995;SDS011;11664;49.774;8.650;2024-02-28T03:14:50;18.10;;;8.45;;
22995;SDS011;11664;49.774;8.650;2024-02-28T03:17:16;12.30;;;7.65;;
22995;SDS011;11664;49.774;8.650;2024-02-28T03:19:42;12.10;;;6.97;;
22995;SDS011;11664;49.774;8.650;2024-02-28T03:22:08;17.85;;;9.20;;
22995;SDS011;11664;49.774;8.650;2024-02-28T03:24:33;19.33;;;9.32;;
22995;SDS011;11664;49.774;8.650;2024-02-28T03:27:02;17.27;;;9.35;;
22995;SDS011;11664;49.774;8.650;2024-02-28T03:29:28;12.73;;;8.18;;
22995;SDS011;11664;49.774;8.650;2024-02-28T03:31:54;18.75;;;7.78;;
22995;SDS011;11664;49.774;8.650;2024-02-28T03:34:19;16.63;;;8.40;;
22995;SDS011;11664;49.774;8.650;2024-02-28T03:36:45;17.02;;;8.77;;
22995;SDS011;11664;49.774;8.650;2024-02-28T03:39:11;18.65;;;8.80;;
22995;SDS011;11664;49.774;8.650;2024-02-28T03:41:37;20.15;;;9.35;;
22995;SDS011;11664;49.774;8.650;2024-02-28T03:44:03;14.73;;;8.10;;
22995;SDS011;11664;49.774;8.650;2024-02-28T03:46:29;13.88;;;8.57;;
22995;SDS011;11664;49.774;8.650;2024-02-28T03:48:54;16.52;;;8.75;;
22995;SDS011;11664;49.774;8.650;2024-02-28T03:51:20;18.90;;;8.32;;
22995;SDS011;11664;49.774;8.650;2024-02-28T03:53:46;14.93;;;8.38;;
22995;SDS011;11664;49.774;8.650;2024-02-28T03:56:11;13.40;;;8.52;;
22995;SDS011;11664;49.774;8.650;2024-02-28T03:58:37;14.20;;;8.52;;
22995;SDS011;11664;49.774;8.650;2024-02-28T04:01:03;19.73;;;9.45;;
22995;SDS011;11664;49.774;8.650;2024-02-28T04:03:28;19.63;;;9.57;;
22995;SDS011;11664;49.774;8.650;2024-02-28T04:05:54;18.10;;;9.18;;
22995;SDS011;11664;49.774;8.650;2024-02-28T04:08:19;14.25;;;9.13;;
22995;SDS011;11664;49.774;8.650;2024-02-28T04:10:45;15.52;;;9.05;;
22995;SDS011;11664;49.774;8.650;2024-02-28T04:13:11;17.55;;;9.05;;
22995;SDS011;11664;49.774;8.650;2024-02-28T04:15:36;13.20;;;8.18;;
22995;SDS011;11664;49.774;8.650;2024-02-28T04:18:03;20.10;;;10.25;;
22995;SDS011;11664;49.774;8.650;2024-02-28T04:20:29;13.73;;;8.68;;
22995;SDS011;11664;49.774;8.650;2024-02-28T04:22:54;22.80;;;11.00;;
22995;SDS011;11664;49.774;8.650;2024-02-28T04:25:20;20.15;;;9.63;;
22995;SDS011;11664;49.774;8.650;2024-02-28T04:27:45;17.67;;;8.77;;
22995;SDS011;11664;49.774;8.650;2024-02-28T04:30:12;15.02;;;8.45;;
22995;SDS011;11664;49.774;8.650;2024-02-28T04:32:38;16.92;;;9.00;;
22995;SDS011;11664;49.774;8.650;2024-02-28T04:35:03;15.90;;;8.90;;
22995;SDS011;11664;49.774;8.650;2024-02-28T04:37:29;14.32;;;9.85;;
22995;SDS011;11664;49.774;8.650;2024-02-28T04:39:55;14.50;;;8.45;;
22995;SDS011;11664;49.774;8.650;2024-02-28T04:42:20;15.20;;;9.57;;
22995;SDS011;11664;49.774;8.650;2024-02-28T04:44:46;18.63;;;9.38;;
22995;SDS011;11664;49.774;8.650;2024-02-28T04:47:11;16.17;;;8.85;;
22995;SDS011;11664;49.774;8.650;2024-02-28T04:49:37;11.45;;;8.48;;
22995;SDS011;11664;49.774;8.650;2024-02-28T04:52:05;17.25;;;8.45;;
22995;SDS011;11664;49.774;8.650;2024-02-28T04:54:31;17.05;;;8.85;;
22995;SDS011;11664;49.774;8.650;2024-02-28T04:56:57;18.52;;;9.20;;
22995;SDS011;11664;49.774;8.650;2024-02-28T04:59:23;14.18;;;8.82;;
22995;SDS011;11664;49.774;8.650;2024-02-28T05:01:48;17.20;;;7.47;;
22995;SDS011;11664;49.774;8.650;2024-02-28T05:04:14;13.68;;;8.98;;
22995;SDS011;11664;49.774;8.650;2024-02-28T05:06:39;15.65;;;8.75;;
22995;SDS011;11664;49.774;8.650;2024-02-28T05:09:05;15.73;;;8.05;;
22995;SDS011;11664;49.774;8.650;2024-02-28T05:11:31;18.95;;;10.07;;
22995;SDS011;11664;49.774;8.650;2024-02-28T05:13:57;24.33;;;10.35;;
22995;SDS011;11664;49.774;8.650;2024-02-28T05:16:23;16.58;;;8.57;;
22995;SDS011;11664;49.774;8.650;2024-02-28T05:18:48;17.65;;;8.32;;
22995;SDS011;11664;49.774;8.650;2024-02-28T05:21:14;14.48;;;8.38;;
22995;SDS011;11664;49.774;8.650;2024-02-28T05:23:39;18.27;;;9.98;;
22995;SDS011;11664;49.774;8.650;2024-02-28T05:26:05;16.05;;;9.98;;
22995;SDS011;11664;49.774;8.650;2024-02-28T05:28:35;18.60;;;9.00;;
22995;SDS011;11664;49.774;8.650;2024-02-28T05:31:02;23.77;;;9.43;;
22995;SDS011;11664;49.774;8.650;2024-02-28T05:33:43;20.70;;;9.32;;
22995;SDS011;11664;49.774;8.650;2024-02-28T05:36:09;16.88;;;9.85;;
22995;SDS011;11664;49.774;8.650;2024-02-28T05:38:34;14.77;;;10.50;;
22995;SDS011;11664;49.774;8.650;2024-02-28T05:41:00;15.15;;;10.32;;
22995;SDS011;11664;49.774;8.650;2024-02-28T05:43:26;17.98;;;10.38;;
22995;SDS011;11664;49.774;8.650;2024-02-28T05:45:52;17.40;;;9.32;;
22995;SDS011;11664;49.774;8.650;2024-02-28T05:48:18;16.48;;;9.40;;
22995;SDS011;11664;49.774;8.650;2024-02-28T05:50:43;13.50;;;7.95;;
22995;SDS011;11664;49.774;8.650;2024-02-28T05:53:09;17.58;;;9.68;;
22995;SDS011;11664;49.774;8.650;2024-02-28T05:55:34;18.92;;;10.60;;
22995;SDS011;11664;49.774;8.650;2024-02-28T05:58:00;18.15;;;9.40;;
22995;SDS011;11664;49.774;8.650;2024-02-28T06:00:26;16.73;;;8.70;;
22995;SDS011;11664;49.774;8.650;2024-02-28T06:02:53;17.85;;;9.68;;
22995;SDS011;11664;49.774;8.650;2024-02-28T06:05:19;20.67;;;9.45;;
22995;SDS011;11664;49.774;8.650;2024-02-28T06:07:44;18.90;;;9.85;;
22995;SDS011;11664;49.774;8.650;2024-02-28T06:10:10;14.75;;;8.95;;
22995;SDS011;11664;49.774;8.650;2024-02-28T06:12:36;20.08;;;9.13;;
22995;SDS011;11664;49.774;8.650;2024-02-28T06:15:02;18.50;;;8.93;;
22995;SDS011;11664;49.774;8.650;2024-02-28T06:17:29;17.40;;;9.13;;
22995;SDS011;11664;49.774;8.650;2024-02-28T06:19:55;18.23;;;9.50;;
22995;SDS011;11664;49.774;8.650;2024-02-28T06:22:20;19.92;;;8.85;;
22995;SDS011;11664;49.774;8.650;2024-02-28T06:24:46;16.88;;;9.05;;
22995;SDS011;11664;49.774;8.650;2024-02-28T06:27:11;17.05;;;9.18;;
22995;SDS011;11664;49.774;8.650;2024-02-28T06:29:38;19.35;;;9.32;;
22995;SDS011;11664;49.774;8.650;2024-02-28T06:32:04;17.52;;;8.95;;
22995;SDS011;11664;49.774;8.650;2024-02-28T06:34:30;19.33;;;10.38;;
22995;SDS011;11664;49.774;8.650;2024-02-28T06:36:56;17.27;;;9.68;;
22995;SDS011;11664;49.774;8.650;2024-02-28T06:39:21;18.98;;;10.25;;
22995;SDS011;11664;49.774;8.650;2024-02-28T06:41:47;20.58;;;10.20;;
22995;SDS011;11664;49.774;8.650;2024-02-28T06:44:15;20.60;;;11.15;;
22995;SDS011;11664;49.774;8.650;2024-02-28T06:46:41;17.05;;;8.90;;
22995;SDS011;11664;49.774;8.650;2024-02-28T06:49:06;17.25;;;8.50;;
22995;SDS011;11664;49.774;8.650;2024-02-28T06:51:32;17.25;;;8.70;;
22995;SDS011;11664;49.774;8.650;2024-02-28T06:53:58;20.65;;;10.60;;
22995;SDS011;11664;49.774;8.650;2024-02-28T06:56:23;16.45;;;10.70;;
22995;SDS011;11664;49.774;8.650;2024-02-28T06:58:49;25.70;;;10.60;;
22995;SDS011;11664;49.774;8.650;2024-02-28T07:01:14;19.27;;;10.15;;
22995;SDS011;11664;49.774;8.650;2024-02-28T07:03:40;20.20;;;10.25;;
22995;SDS011;11664;49.774;8.650;2024-02-28T07:06:05;21.45;;;10.25;;
22995;SDS011;11664;49.774;8.650;2024-02-28T07:08:31;19.27;;;9.77;;
22995;SDS011;11664;49.774;8.650;2024-02-28T07:10:57;18.90;;;11.00;;
22995;SDS011;11664;49.774;8.650;2024-02-28T07:13:23;24.98;;;10.32;;
22995;SDS011;11664;49.774;8.650;2024-02-28T07:15:49;20.20;;;9.23;;
22995;SDS011;11664;49.774;8.650;2024-02-28T07:18:14;17.40;;;9.57;;
22995;SDS011;11664;49.774;8.650;2024-02-28T07:20:40;24.02;;;10.98;;
22995;SDS011;11664;49.774;8.650;2024-02-28T07:23:06;24.25;;;11.43;;
22995;SDS011;11664;49.774;8.650;2024-02-28T07:25:31;20.90;;;11.25;;
22995;SDS011;11664;49.774;8.650;2024-02-28T07:27:57;23.30;;;11.10;;
22995;SDS011;11664;49.774;8.650;2024-02-28T07:30:27;22.60;;;12.07;;
22995;SDS011;11664;49.774;8.650;2024-02-28T07:32:53;20.88;;;9.82;;
22995;SDS011;11664;49.774;8.650;2024-02-28T07:35:19;20.38;;;9.88;;
22995;SDS011;11664;49.774;8.650;2024-02-28T07:37:45;18.77;;;8.77;;
22995;SDS011;11664;49.774;8.650;2024-02-28T07:40:11;26.05;;;9.70;;
22995;SDS011;11664;49.774;8.650;2024-02-28T07:42:37;22.40;;;10.13;;
22995;SDS011;11664;49.774;8.650;2024-02-28T07:45:03;20.58;;;10.82;;
22995;SDS011;11664;49.774;8.650;2024-02-28T07:47:29;23.48;;;11.77;;
22995;SDS011;11664;49.774;8.650;2024-02-28T07:49:54;24.33;;;14.98;;
22995;SDS011;11664;49.774;8.650;2024-02-28T07:52:20;23.13;;;12.00;;
22995;SDS011;11664;49.774;8.650;2024-02-28T07:54:45;20.45;;;11.60;;
22995;SDS011;11664;49.774;8.650;2024-02-28T07:57:11;32.60;;;29.23;;
22995;SDS011;11664;49.774;8.650;2024-02-28T07:59:41;30.23;;;25.83;;
22995;SDS011;11664;49.774;8.650;2024-02-28T08:02:07;23.35;;;11.27;;
22995;SDS011;11664;49.774;8.650;2024-02-28T08:04:34;19.88;;;10.48;;
22995;SDS011;11664;49.774;8.650;2024-02-28T08:07:00;21.48;;;10.20;;
22995;SDS011;11664;49.774;8.650;2024-02-28T08:09:26;23.70;;;11.70;;
22995;SDS011;11664;49.774;8.650;2024-02-28T08:11:52;25.35;;;11.50;;
22995;SDS011;11664;49.774;8.650;2024-02-28T08:14:17;23.52;;;11.88;;
22995;SDS011;11664;49.774;8.650;2024-02-28T08:16:43;23.73;;;11.48;;
22995;SDS011;11664;49.774;8.650;2024-02-28T08:19:08;25.70;;;12.80;;
22995;SDS011;11664;49.774;8.650;2024-02-28T08:21:34;23.38;;;11.25;;
22995;SDS011;11664;49.774;8.650;2024-02-28T08:23:59;20.73;;;11.30;;
22995;SDS011;11664;49.774;8.650;2024-02-28T08:26:28;23.02;;;11.95;;
22995;SDS011;11664;49.774;8.650;2024-02-28T08:28:54;25.92;;;12.73;;
22995;SDS011;11664;49.774;8.650;2024-02-28T08:31:19;20.95;;;11.98;;
22995;SDS011;11664;49.774;8.650;2024-02-28T08:33:45;25.52;;;10.50;;
22995;SDS011;11664;49.774;8.650;2024-02-28T08:36:10;24.77;;;11.88;;
22995;SDS011;11664;49.774;8.650;2024-02-28T08:38:36;22.88;;;11.35;;
22995;SDS011;11664;49.774;8.650;2024-02-28T08:41:03;24.50;;;13.95;;
22995;SDS011;11664;49.774;8.650;2024-02-28T08:43:29;20.67;;;12.05;;
22995;SDS011;11664;49.774;8.650;2024-02-28T08:45:55;20.40;;;9.45;;
22995;SDS011;11664;49.774;8.650;2024-02-28T08:48:21;21.80;;;10.60;;
22995;SDS011;11664;49.774;8.650;2024-02-28T08:50:48;20.85;;;11.43;;
22995;SDS011;11664;49.774;8.650;2024-02-28T08:53:13;21.63;;;9.20;;
22995;SDS011;11664;49.774;8.650;2024-02-28T08:55:39;20.60;;;10.82;;
22995;SDS011;11664;49.774;8.650;2024-02-28T08:58:04;19.85;;;10.48;;
22995;SDS011;11664;49.774;8.650;2024-02-28T09:00:30;19.77;;;9.90;;
22995;SDS011;11664;49.774;8.650;2024-02-28T09:02:56;23.35;;;14.88;;
22995;SDS011;11664;49.774;8.650;2024-02-28T09:05:22;21.55;;;14.32;;
22995;SDS011;11664;49.774;8.650;2024-02-28T09:07:48;24.70;;;12.45;;
22995;SDS011;11664;49.774;8.650;2024-02-28T09:10:16;24.20;;;15.32;;
22995;SDS011;11664;49.774;8.650;2024-02-28T09:12:49;18.52;;;9.73;;
22995;SDS011;11664;49.774;8.650;2024-02-28T09:15:17;20.33;;;10.75;;
22995;SDS011;11664;49.774;8.650;2024-02-28T09:17:43;17.70;;;10.30;;
22995;SDS011;11664;49.774;8.650;2024-02-28T09:20:09;20.58;;;10.60;;
22995;SDS011;11664;49.774;8.650;2024-02-28T09:22:35;22.52;;;10.38;;
22995;SDS011;11664;49.774;8.650;2024-02-28T09:25:01;17.55;;;9.48;;
22995;SDS011;11664;49.774;8.650;2024-02-28T09:27:30;19.67;;;9.25;;
22995;SDS011;11664;49.774;8.650;2024-02-28T09:29:55;20.17;;;11.20;;
22995;SDS011;11664;49.774;8.650;2024-02-28T09:32:21;17.85;;;12.02;;
22995;SDS011;11664;49.774;8.650;2024-02-28T09:34:47;19.55;;;12.55;;
22995;SDS011;11664;49.774;8.650;2024-02-28T09:37:13;20.52;;;12.40;;
22995;SDS011;11664;49.774;8.650;2024-02-28T09:39:39;22.65;;;11.98;;
22995;SDS011;11664;49.774;8.650;2024-02-28T09:42:06;23.80;;;14.68;;
22995;SDS011;11664;49.774;8.650;2024-02-28T09:44:33;23.38;;;16.27;;
22995;SDS011;11664;49.774;8.650;2024-02-28T09:46:59;23.35;;;13.70;;
22995;SDS011;11664;49.774;8.650;2024-02-28T09:49:25;19.88;;;14.30;;
22995;SDS011;11664;49.774;8.650;2024-02-28T09:51:51;21.73;;;12.20;;
22995;SDS011;11664;49.774;8.650;2024-02-28T09:54:18;22.60;;;14.15;;
22995;SDS011;11664;49.774;8.650;2024-02-28T09:56:43;27.58;;;24.73;;
22995;SDS011;11664;49.774;8.650;2024-02-28T09:59:09;21.67;;;12.02;;
22995;SDS011;11664;49.774;8.650;2024-02-28T10:01:37;19.30;;;10.18;;
22995;SDS011;11664;49.774;8.650;2024-02-28T10:04:09;20.95;;;12.10;;
22995;SDS011;11664;49.774;8.650;2024-02-28T10:06:39;18.45;;;10.73;;
22995;SDS011;11664;49.774;8.650;2024-02-28T10:09:05;17.67;;;11.90;;
22995;SDS011;11664;49.774;8.650;2024-02-28T10:11:30;21.30;;;13.07;;
22995;SDS011;11664;49.774;8.650;2024-02-28T10:13:56;19.67;;;12.80;;
22995;SDS011;11664;49.774;8.650;2024-02-28T10:16:21;24.27;;;11.73;;
22995;SDS011;11664;49.774;8.650;2024-02-28T10:18:48;14.68;;;9.98;;
22995;SDS011;11664;49.774;8.650;2024-02-28T10:21:13;22.95;;;15.60;;
22995;SDS011;11664;49.774;8.650;2024-02-28T10:23:41;19.75;;;12.63;;
22995;SDS011;11664;49.774;8.650;2024-02-28T10:26:10;22.35;;;12.98;;
22995;SDS011;11664;49.774;8.650;2024-02-28T10:28:40;21.17;;;15.07;;
22995;SDS011;11664;49.774;8.650;2024-02-28T10:31:06;20.35;;;15.10;;
22995;SDS011;11664;49.774;8.650;2024-02-28T10:33:32;19.48;;;11.25;;
22995;SDS011;11664;49.774;8.650;2024-02-28T10:35:58;16.92;;;10.63;;
22995;SDS011;11664;49.774;8.650;2024-02-28T10:38:24;16.13;;;9.38;;
22995;SDS011;11664;49.774;8.650;2024-02-28T10:40:51;18.58;;;12.00;;
22995;SDS011;11664;49.774;8.650;2024-02-28T10:43:18;11.75;;;8.40;;
22995;SDS011;11664;49.774;8.650;2024-02-28T10:45:45;16.95;;;10.25;;
22995;SDS011;11664;49.774;8.650;2024-02-28T10:48:11;17.10;;;9.35;;
22995;SDS011;11664;49.774;8.650;2024-02-28T10:50:39;16.73;;;8.52;;
22995;SDS011;11664;49.774;8.650;2024-02-28T10:53:05;16.17;;;8.57;;
22995;SDS011;11664;49.774;8.650;2024-02-28T10:55:40;15.85;;;8.43;;
22995;SDS011;11664;49.774;8.650;2024-02-28T10:58:06;14.75;;;9.13;;
22995;SDS011;11664;49.774;8.650;2024-02-28T11:00:35;20.35;;;9.00;;
22995;SDS011;11664;49.774;8.650;2024-02-28T11:03:04;12.65;;;7.10;;
22995;SDS011;11664;49.774;8.650;2024-02-28T11:05:40;14.80;;;8.30;;
22995;SDS011;11664;49.774;8.650;2024-02-28T11:08:09;14.70;;;7.43;;
22995;SDS011;11664;49.774;8.650;2024-02-28T11:10:35;14.30;;;7.18;;
22995;SDS011;11664;49.774;8.650;2024-02-28T11:13:05;14.07;;;7.68;;
22995;SDS011;11664;49.774;8.650;2024-02-28T11:15:30;12.85;;;9.85;;
22995;SDS011;11664;49.774;8.650;2024-02-28T11:18:06;14.30;;;10.35;;
22995;SDS011;11664;49.774;8.650;2024-02-28T11:20:34;9.30;;;7.43;;
22995;SDS011;11664;49.774;8.650;2024-02-28T11:23:00;10.88;;;6.43;;
22995;SDS011;11664;49.774;8.650;2024-02-28T11:25:25;13.07;;;6.43;;
22995;SDS011;11664;49.774;8.650;2024-02-28T11:27:51;12.32;;;6.75;;
22995;SDS011;11664;49.774;8.650;2024-02-28T11:30:16;9.13;;;5.70;;
22995;SDS011;11664;49.774;8.650;2024-02-28T11:32:42;10.45;;;6.07;;
22995;SDS011;11664;49.774;8.650;2024-02-28T11:35:08;8.93;;;5.72;;
22995;SDS011;11664;49.774;8.650;2024-02-28T11:37:34;11.13;;;6.15;;
22995;SDS011;11664;49.774;8.650;2024-02-28T11:40:00;10.82;;;5.68;;
22995;SDS011;11664;49.774;8.650;2024-02-28T11:42:26;8.73;;;5.30;;
22995;SDS011;11664;49.774;8.650;2024-02-28T11:44:54;10.65;;;6.35;;
22995;SDS011;11664;49.774;8.650;2024-02-28T11:47:22;9.52;;;5.70;;
22995;SDS011;11664;49.774;8.650;2024-02-28T11:49:48;9.65;;;5.80;;
22995;SDS011;11664;49.774;8.650;2024-02-28T11:52:14;9.10;;;6.10;;
22995;SDS011;11664;49.774;8.650;2024-02-28T11:54:40;9.65;;;5.07;;
22995;SDS011;11664;49.774;8.650;2024-02-28T11:57:07;9.75;;;5.70;;
22995;SDS011;11664;49.774;8.650;2024-02-28T11:59:35;7.20;;;5.47;;
22995;SDS011;11664;49.774;8.650;2024-02-28T12:02:10;8.82;;;7.55;;
22995;SDS011;11664;49.774;8.650;2024-02-28T12:04:37;8.95;;;6.70;;
22995;SDS011;11664;49.774;8.650;2024-02-28T12:07:02;11.90;;;8.48;;
22995;SDS011;11664;49.774;8.650;2024-02-28T12:09:28;9.40;;;7.80;;
22995;SDS011;11664;49.774;8.650;2024-02-28T12:11:55;8.85;;;5.97;;
22995;SDS011;11664;49.774;8.650;2024-02-28T12:14:20;9.30;;;5.78;;
22995;SDS011;11664;49.774;8.650;2024-02-28T12:16:47;6.85;;;5.55;;
22995;SDS011;11664;49.774;8.650;2024-02-28T12:19:13;7.13;;;4.65;;
22995;SDS011;11664;49.774;8.650;2024-02-28T12:21:40;5.25;;;4.45;;
22995;SDS011;11664;49.774;8.650;2024-02-28T12:24:09;8.00;;;4.97;;
22995;SDS011;11664;49.774;8.650;2024-02-28T12:26:36;5.55;;;4.15;;
22995;SDS011;11664;49.774;8.650;2024-02-28T12:29:02;7.22;;;4.55;;
22995;SDS011;11664;49.774;8.650;2024-02-28T12:31:28;6.53;;;4.55;;
22995;SDS011;11664;49.774;8.650;2024-02-28T12:33:53;7.90;;;4.25;;
22995;SDS011;11664;49.774;8.650;2024-02-28T12:36:19;7.05;;;4.57;;
22995;SDS011;11664;49.774;8.650;2024-02-28T12:38:45;5.93;;;4.55;;
22995;SDS011;11664;49.774;8.650;2024-02-28T12:41:11;5.82;;;4.63;;
22995;SDS011;11664;49.774;8.650;2024-02-28T12:43:38;5.45;;;4.82;;
22995;SDS011;11664;49.774;8.650;2024-02-28T12:46:04;4.78;;;4.18;;
22995;SDS011;11664;49.774;8.650;2024-02-28T12:48:30;6.75;;;4.88;;
22995;SDS011;11664;49.774;8.650;2024-02-28T12:51:02;8.98;;;7.43;;
22995;SDS011;11664;49.774;8.650;2024-02-28T12:53:27;9.27;;;6.57;;
22995;SDS011;11664;49.774;8.650;2024-02-28T12:55:53;8.88;;;7.53;;
22995;SDS011;11664;49.774;8.650;2024-02-28T12:58:18;9.90;;;7.68;;
22995;SDS011;11664;49.774;8.650;2024-02-28T13:00:44;11.98;;;10.25;;
22995;SDS011;11664;49.774;8.650;2024-02-28T13:03:09;13.35;;;9.95;;
22995;SDS011;11664;49.774;8.650;2024-02-28T13:05:35;16.88;;;13.38;;
22995;SDS011;11664;49.774;8.650;2024-02-28T13:08:00;14.52;;;13.00;;
22995;SDS011;11664;49.774;8.650;2024-02-28T13:10:26;13.25;;;11.18;;
22995;SDS011;11664;49.774;8.650;2024-02-28T13:12:52;11.25;;;6.28;;
22995;SDS011;11664;49.774;8.650;2024-02-28T13:15:18;9.25;;;4.82;;
22995;SDS011;11664;49.774;8.650;2024-02-28T13:17:43;8.80;;;6.57;;
22995;SDS011;11664;49.774;8.650;2024-02-28T13:20:11;9.93;;;8.20;;
22995;SDS011;11664;49.774;8.650;2024-02-28T13:22:37;9.65;;;8.52;;
22995;SDS011;11664;49.774;8.650;2024-02-28T13:25:03;9.23;;;7.03;;
22995;SDS011;11664;49.774;8.650;2024-02-28T13:27:28;9.65;;;7.75;;
22995;SDS011;11664;49.774;8.650;2024-02-28T13:29:54;10.90;;;9.80;;
22995;SDS011;11664;49.774;8.650;2024-02-28T13:32:19;7.35;;;6.10;;
22995;SDS011;11664;49.774;8.650;2024-02-28T13:34:45;9.20;;;7.68;;
22995;SDS011;11664;49.774;8.650;2024-02-28T13:37:11;9.25;;;6.95;;
22995;SDS011;11664;49.774;8.650;2024-02-28T13:39:36;7.90;;;5.93;;
22995;SDS011;11664;49.774;8.650;2024-02-28T13:42:02;10.82;;;9.35;;
22995;SDS011;11664;49.774;8.650;2024-02-28T13:44:31;23.17;;;21.50;;
22995;SDS011;11664;49.774;8.650;2024-02-28T13:46:57;21.30;;;19.63;;
22995;SDS011;11664;49.774;8.650;2024-02-28T13:49:22;15.02;;;13.35;;
22995;SDS011;11664;49.774;8.650;2024-02-28T13:51:48;15.07;;;13.57;;
22995;SDS011;11664;49.774;8.650;2024-02-28T13:54:14;14.70;;;13.30;;
22995;SDS011;11664;49.774;8.650;2024-02-28T13:56:40;17.42;;;15.82;;
22995;SDS011;11664;49.774;8.650;2024-02-28T13:59:06;14.73;;;13.25;;
22995;SDS011;11664;49.774;8.650;2024-02-28T14:01:31;14.40;;;12.48;;
22995;SDS011;11664;49.774;8.650;2024-02-28T14:03:58;14.25;;;12.23;;
22995;SDS011;11664;49.774;8.650;2024-02-28T14:06:23;13.57;;;12.32;;
22995;SDS011;11664;49.774;8.650;2024-02-28T14:08:49;12.55;;;10.02;;
22995;SDS011;11664;49.774;8.650;2024-02-28T14:11:17;11.25;;;10.02;;
22995;SDS011;11664;49.774;8.650;2024-02-28T14:13:42;12.77;;;11.57;;
22995;SDS011;11664;49.774;8.650;2024-02-28T14:16:08;24.52;;;22.38;;
22995;SDS011;11664;49.774;8.650;2024-02-28T14:18:33;18.38;;;16.50;;
22995;SDS011;11664;49.774;8.650;2024-02-28T14:21:00;16.17;;;14.55;;
22995;SDS011;11664;49.774;8.650;2024-02-28T14:23:27;15.63;;;12.20;;
22995;SDS011;11664;49.774;8.650;2024-02-28T14:25:53;16.98;;;9.13;;